sensor_id;sensor_type;location;lat;lon;timestamp;pressure;altitude;pressure_sealevel;temperature;humidity
61880;BME280;47817;52.798;27.544;2023-02-19T00:01:58;1009.2;;;4.2;64.3
61880;BME280;47817;52.798;27.544;2023-02-19T00:06:10;1009.3;;;4.1;64.7
61880;BME280;47817;52.798;27.544;2023-02-19T00:11:33;1009.3;;;4;65
61880;BME280;47817;52.798;27.544;2023-02-19T00:17:00;1009.3;;;3.8;65.6
61880;BME280;47817;52.798;27.544;2023-02-19T00:21:50;1009.4;;;3.7;66.2
61880;BME280;47817;52.798;27.544;2023-02-19T00:27:00;1009.4;;;3.6;66.7
61880;BME280;47817;52.798;27.544;2023-02-19T00:31:31;1009.4;;;3.5;67.3
61880;BME280;47817;52.798;27.544;2023-02-19T00:36:30;1009.4;;;3.4;67.8
61880;BME280;47817;52.798;27.544;2023-02-19T00:41:56;1009.5;;;3.4;68.2
61880;BME280;47817;52.798;27.544;2023-02-19T00:46:48;1009.4;;;3.5;68.4
61880;BME280;47817;52.798;27.544;2023-02-19T00:51:58;1009.4;;;3.5;68.7
61880;BME280;47817;52.798;27.544;2023-02-19T00:56:10;1009.3;;;3.4;69.1
61880;BME280;47817;52.798;27.544;2023-02-19T01:01:10;1009.3;;;3.3;69.2
61880;BME280;47817;52.798;27.544;2023-02-19T01:06:58;1009.3;;;3.3;69.4
61880;BME280;47817;52.798;27.544;2023-02-19T01:11:48;1009.3;;;3.2;69.8
61880;BME280;47817;52.798;27.544;2023-02-19T01:16:58;1009.4;;;3.2;70
61880;BME280;47817;52.798;27.544;2023-02-19T01:21:28;1009.4;;;3.1;70.4
61880;BME280;47817;52.798;27.544;2023-02-19T01:26:17;1009.3;;;3;70.9
61880;BME280;47817;52.798;27.544;2023-02-19T01:31:56;1009.3;;;3;71.3
61880;BME280;47817;52.798;27.544;2023-02-19T01:36:50;1009.4;;;2.9;71.6
61880;BME280;47817;52.798;27.544;2023-02-19T01:41:52;1009.4;;;2.9;71.7
61880;BME280;47817;52.798;27.544;2023-02-19T01:46:32;1009.4;;;2.9;72
61880;BME280;47817;52.798;27.544;2023-02-19T01:51:30;1009.4;;;3;72
61880;BME280;47817;52.798;27.544;2023-02-19T01:57:00;1009.4;;;2.9;72.3
61880;BME280;47817;52.798;27.544;2023-02-19T02:01:48;1009.5;;;2.8;72.6
61880;BME280;47817;52.798;27.544;2023-02-19T02:06:56;1009.5;;;2.8;72.8
61880;BME280;47817;52.798;27.544;2023-02-19T02:11:22;1009.5;;;2.8;72.9
61880;BME280;47817;52.798;27.544;2023-02-19T02:16:22;1009.5;;;2.8;72.9
61880;BME280;47817;52.798;27.544;2023-02-19T02:22:00;1009.6;;;2.9;72.8
61880;BME280;47817;52.798;27.544;2023-02-19T02:26:15;1009.5;;;3;72.6
61880;BME280;47817;52.798;27.544;2023-02-19T02:31:50;1009.5;;;3.1;72.5
61880;BME280;47817;52.798;27.544;2023-02-19T02:36:30;1009.5;;;3.1;72.6
61880;BME280;47817;52.798;27.544;2023-02-19T02:41:18;1009.6;;;3.1;72.6
61880;BME280;47817;52.798;27.544;2023-02-19T02:46:25;1009.6;;;3;72.8
61880;BME280;47817;52.798;27.544;2023-02-19T02:51:58;1009.6;;;3;73.2
61880;BME280;47817;52.798;27.544;2023-02-19T02:56:22;1009.8;;;2.9;73.4
61880;BME280;47817;52.798;27.544;2023-02-19T03:01:11;1009.9;;;2.9;73.5
61880;BME280;47817;52.798;27.544;2023-02-19T03:06:16;1009.9;;;2.9;73.8
61880;BME280;47817;52.798;27.544;2023-02-19T03:11:30;1009.8;;;2.8;74
61880;BME280;47817;52.798;27.544;2023-02-19T03:16:59;1009.9;;;2.8;74.5
61880;BME280;47817;52.798;27.544;2023-02-19T03:21:48;1009.9;;;2.7;74.9
61880;BME280;47817;52.798;27.544;2023-02-19T03:26:30;1010;;;2.6;75.4
61880;BME280;47817;52.798;27.544;2023-02-19T03:31:22;1010;;;2.5;76
61880;BME280;47817;52.798;27.544;2023-02-19T03:36:32;1010;;;2.5;76.2
61880;BME280;47817;52.798;27.544;2023-02-19T03:41:57;1010.1;;;2.6;76.4
61880;BME280;47817;52.798;27.544;2023-02-19T03:46:50;1010.1;;;2.7;76.1
61880;BME280;47817;52.798;27.544;2023-02-19T03:51:31;1010.1;;;2.8;76
61880;BME280;47817;52.798;27.544;2023-02-19T03:56:24;1010.2;;;2.8;75.9
61880;BME280;47817;52.798;27.544;2023-02-19T04:01:43;1010.3;;;2.8;75.9
61880;BME280;47817;52.798;27.544;2023-02-19T04:07:00;1010.3;;;2.8;75.9
61880;BME280;47817;52.798;27.544;2023-02-19T04:11:58;1010.3;;;2.8;75.9
61880;BME280;47817;52.798;27.544;2023-02-19T04:16:23;1010.3;;;2.7;76.1
61880;BME280;47817;52.798;27.544;2023-02-19T04:21:10;1010.3;;;2.7;76.3
61880;BME280;47817;52.798;27.544;2023-02-19T04:26:58;1010.4;;;2.7;76.5
61880;BME280;47817;52.798;27.544;2023-02-19T04:31:44;1010.3;;;2.7;76.5
61880;BME280;47817;52.798;27.544;2023-02-19T04:36:50;1010.3;;;2.7;76.6
61880;BME280;47817;52.798;27.544;2023-02-19T04:41:10;1010.3;;;2.7;76.7
61880;BME280;47817;52.798;27.544;2023-02-19T04:46:16;1010.1;;;2.7;76.8
61880;BME280;47817;52.798;27.544;2023-02-19T04:51:32;1010.2;;;2.7;77.1
61880;BME280;47817;52.798;27.544;2023-02-19T04:56:58;1010.1;;;2.7;77.3
61880;BME280;47817;52.798;27.544;2023-02-19T05:01:38;1010.1;;;2.7;77.3
61880;BME280;47817;52.798;27.544;2023-02-19T05:06:30;1010.1;;;2.7;77.4
61880;BME280;47817;52.798;27.544;2023-02-19T05:11:42;1010.1;;;2.7;77.6
61880;BME280;47817;52.798;27.544;2023-02-19T05:16:22;1010.1;;;2.7;77.9
61880;BME280;47817;52.798;27.544;2023-02-19T05:21:58;1010.2;;;2.7;78
61880;BME280;47817;52.798;27.544;2023-02-19T05:26:50;1010.2;;;2.7;78.3
61880;BME280;47817;52.798;27.544;2023-02-19T05:31:30;1010.1;;;2.8;78.3
61880;BME280;47817;52.798;27.544;2023-02-19T05:36:16;1010;;;2.8;78.4
61880;BME280;47817;52.798;27.544;2023-02-19T05:41:32;1010.1;;;2.9;78.4
61880;BME280;47817;52.798;27.544;2023-02-19T05:46:58;1010.1;;;2.9;78.5
61880;BME280;47817;52.798;27.544;2023-02-19T05:51:50;1010.1;;;2.9;78.6
61880;BME280;47817;52.798;27.544;2023-02-19T05:56:58;1010.1;;;3;78.5
61880;BME280;47817;52.798;27.544;2023-02-19T06:01:23;1010.1;;;3.1;78.3
61880;BME280;47817;52.798;27.544;2023-02-19T06:06:10;1010.2;;;3.1;78.3
61880;BME280;47817;52.798;27.544;2023-02-19T06:11:58;1010.2;;;3.2;78.2
61880;BME280;47817;52.798;27.544;2023-02-19T06:16:50;1010.1;;;3.3;78
61880;BME280;47817;52.798;27.544;2023-02-19T06:21:28;1010.1;;;3.3;78
61880;BME280;47817;52.798;27.544;2023-02-19T06:26:11;1010.1;;;3.4;77.8
61880;BME280;47817;52.798;27.544;2023-02-19T06:31:44;1010.1;;;3.5;77.7
61880;BME280;47817;52.798;27.544;2023-02-19T06:36:58;1010.1;;;3.5;77.7
61880;BME280;47817;52.798;27.544;2023-02-19T06:41:34;1010;;;3.7;77.4
61880;BME280;47817;52.798;27.544;2023-02-19T06:46:42;1010.1;;;3.8;77.1
61880;BME280;47817;52.798;27.544;2023-02-19T06:51:17;1010.1;;;3.7;77
61880;BME280;47817;52.798;27.544;2023-02-19T06:56:20;1010.1;;;3.8;76.9
61880;BME280;47817;52.798;27.544;2023-02-19T07:01:58;1010.1;;;3.8;76.8
61880;BME280;47817;52.798;27.544;2023-02-19T07:06:50;1010.1;;;3.9;76.6
61880;BME280;47817;52.798;27.544;2023-02-19T07:12:00;1010.1;;;4;76.4
61880;BME280;47817;52.798;27.544;2023-02-19T07:16:30;1010.1;;;4;76.2
61880;BME280;47817;52.798;27.544;2023-02-19T07:21:32;1010.2;;;4;76.1
61880;BME280;47817;52.798;27.544;2023-02-19T07:26:58;1010.2;;;4.1;75.8
61880;BME280;47817;52.798;27.544;2023-02-19T07:31:50;1010.1;;;4.3;75.5
61880;BME280;47817;52.798;27.544;2023-02-19T07:36:58;1010.2;;;4.3;75.2
61880;BME280;47817;52.798;27.544;2023-02-19T07:41:30;1010.2;;;4.4;74.8
61880;BME280;47817;52.798;27.544;2023-02-19T07:46:28;1010.1;;;4.6;74.4
61880;BME280;47817;52.798;27.544;2023-02-19T07:51:58;1010.2;;;4.6;74.1
61880;BME280;47817;52.798;27.544;2023-02-19T07:56:50;1010.3;;;4.6;73.9
61880;BME280;47817;52.798;27.544;2023-02-19T08:01:56;1010.4;;;4.6;73.7
61880;BME280;47817;52.798;27.544;2023-02-19T08:06:24;1010.4;;;4.7;73.5
61880;BME280;47817;52.798;27.544;2023-02-19T08:11:28;1010.4;;;4.7;73.3
61880;BME280;47817;52.798;27.544;2023-02-19T08:16:58;1010.3;;;4.7;73
61880;BME280;47817;52.798;27.544;2023-02-19T08:21:36;1010.3;;;4.7;72.8
61880;BME280;47817;52.798;27.544;2023-02-19T08:26:58;1010.3;;;4.7;72.6
61880;BME280;47817;52.798;27.544;2023-02-19T08:31:22;1010.3;;;4.7;72.5
61880;BME280;47817;52.798;27.544;2023-02-19T08:36:30;1010.4;;;4.9;72
61880;BME280;47817;52.798;27.544;2023-02-19T08:41:52;1010.4;;;5;71.2
61880;BME280;47817;52.798;27.544;2023-02-19T08:46:36;1010.4;;;5;70.7
61880;BME280;47817;52.798;27.544;2023-02-19T08:51:58;1010.4;;;5.1;70
61880;BME280;47817;52.798;27.544;2023-02-19T08:56:30;1010.4;;;5;69.5
61880;BME280;47817;52.798;27.544;2023-02-19T09:01:22;1010.3;;;5;69.1
61880;BME280;47817;52.798;27.544;2023-02-19T09:06:58;1010.4;;;4.9;68.7
61880;BME280;47817;52.798;27.544;2023-02-19T09:11:50;1010.3;;;4.7;68.4
61880;BME280;47817;52.798;27.544;2023-02-19T09:16:58;1010.3;;;4.6;68.2
61880;BME280;47817;52.798;27.544;2023-02-19T09:21:28;1010.3;;;4.7;67.8
61880;BME280;47817;52.798;27.544;2023-02-19T09:26:28;1010.3;;;4.6;67.5
61880;BME280;47817;52.798;27.544;2023-02-19T09:31:58;1010.3;;;4.6;67.7
61880;BME280;47817;52.798;27.544;2023-02-19T09:36:50;1010.5;;;4.5;67.8
61880;BME280;47817;52.798;27.544;2023-02-19T09:41:59;1010.6;;;4.5;68
61880;BME280;47817;52.798;27.544;2023-02-19T09:46:13;1010.6;;;4.6;68.1
61880;BME280;47817;52.798;27.544;2023-02-19T09:51:32;1010.6;;;4.6;67.6
61880;BME280;47817;52.798;27.544;2023-02-19T09:56:59;1010.6;;;4.6;67
61880;BME280;47817;52.798;27.544;2023-02-19T10:01:52;1010.6;;;4.7;66.7
61880;BME280;47817;52.798;27.544;2023-02-19T10:07:00;1010.5;;;4.6;66.5
61880;BME280;47817;52.798;27.544;2023-02-19T10:11:10;1010.5;;;4.5;66.3
61880;BME280;47817;52.798;27.544;2023-02-19T10:16:10;1010.5;;;4.6;66.1
61880;BME280;47817;52.798;27.544;2023-02-19T10:21:48;1010.5;;;4.7;66
61880;BME280;47817;52.798;27.544;2023-02-19T10:26:10;1010.4;;;4.8;65.8
61880;BME280;47817;52.798;27.544;2023-02-19T10:32:11;1010.4;;;4.6;65.8
61880;BME280;47817;52.798;27.544;2023-02-19T10:36:23;1010.4;;;4.8;65.8
61880;BME280;47817;52.798;27.544;2023-02-19T10:41:44;1010.4;;;4.8;65.5
61880;BME280;47817;52.798;27.544;2023-02-19T10:47:00;1010.3;;;4.8;65.5
61880;BME280;47817;52.798;27.544;2023-02-19T10:51:10;1010.2;;;4.9;65.4
61880;BME280;47817;52.798;27.544;2023-02-19T10:57:14;1010.3;;;5;65.3
61880;BME280;47817;52.798;27.544;2023-02-19T11:01:22;1010.2;;;5.1;64.7
61880;BME280;47817;52.798;27.544;2023-02-19T11:06:32;1010.2;;;5.3;64.5
61880;BME280;47817;52.798;27.544;2023-02-19T11:12:00;1010.2;;;5.2;64.2
61880;BME280;47817;52.798;27.544;2023-02-19T11:16:46;1010.1;;;5.2;64.2
61880;BME280;47817;52.798;27.544;2023-02-19T11:22:00;1010.2;;;5.2;64.2
61880;BME280;47817;52.798;27.544;2023-02-19T11:26:32;1010.2;;;5.1;63.9
61880;BME280;47817;52.798;27.544;2023-02-19T11:31:12;1010.2;;;5.1;64.1
61880;BME280;47817;52.798;27.544;2023-02-19T11:37:14;1010.1;;;4.9;64.3
61880;BME280;47817;52.798;27.544;2023-02-19T11:41:54;1010.1;;;5;64.4
61880;BME280;47817;52.798;27.544;2023-02-19T11:47:21;1009.9;;;5.1;64.1
61880;BME280;47817;52.798;27.544;2023-02-19T11:51:28;1009.9;;;5.3;63.8
61880;BME280;47817;52.798;27.544;2023-02-19T11:56:19;1009.8;;;5.5;62.6
61880;BME280;47817;52.798;27.544;2023-02-19T12:02:02;1009.8;;;5.9;60.7
61880;BME280;47817;52.798;27.544;2023-02-19T12:07:02;1009.7;;;6.1;58.4
61880;BME280;47817;52.798;27.544;2023-02-19T12:12:06;1009.7;;;6.4;57
61880;BME280;47817;52.798;27.544;2023-02-19T12:16:18;1009.6;;;6.8;55.8
61880;BME280;47817;52.798;27.544;2023-02-19T12:21:37;1009.6;;;7.4;54.8
61880;BME280;47817;52.798;27.544;2023-02-19T12:27:04;1009.6;;;7.4;52.1
61880;BME280;47817;52.798;27.544;2023-02-19T12:31:38;1009.6;;;7.7;52.9
61880;BME280;47817;52.798;27.544;2023-02-19T12:37:03;1009.5;;;7.8;54.7
61880;BME280;47817;52.798;27.544;2023-02-19T12:41:27;1009.5;;;8.1;54.1
61880;BME280;47817;52.798;27.544;2023-02-19T12:46:33;1009.5;;;7.8;51.6
61880;BME280;47817;52.798;27.544;2023-02-19T12:51:53;1009.6;;;7;51.7
61880;BME280;47817;52.798;27.544;2023-02-19T12:56:49;1009.6;;;6.5;53
61880;BME280;47817;52.798;27.544;2023-02-19T13:02:00;1009.7;;;5.9;54.1
61880;BME280;47817;52.798;27.544;2023-02-19T13:06:32;1009.7;;;5.5;54.7
61880;BME280;47817;52.798;27.544;2023-02-19T13:11:35;1009.7;;;5.3;56.5
61880;BME280;47817;52.798;27.544;2023-02-19T13:17:01;1009.7;;;5.2;58.2
61880;BME280;47817;52.798;27.544;2023-02-19T13:21:51;1009.7;;;5.1;58.9
61880;BME280;47817;52.798;27.544;2023-02-19T13:27:05;1009.8;;;4.8;60
61880;BME280;47817;52.798;27.544;2023-02-19T13:31:27;1009.9;;;4.9;60.8
61880;BME280;47817;52.798;27.544;2023-02-19T13:36:46;1009.8;;;5;61.6
61880;BME280;47817;52.798;27.544;2023-02-19T13:41:58;1009.9;;;5.1;62.1
61880;BME280;47817;52.798;27.544;2023-02-19T13:46:49;1009.9;;;5.4;61.7
61880;BME280;47817;52.798;27.544;2023-02-19T13:51:58;1009.8;;;5.9;60.4
61880;BME280;47817;52.798;27.544;2023-02-19T13:56:34;1009.9;;;6;59.4
61880;BME280;47817;52.798;27.544;2023-02-19T14:02:04;1009.9;;;6.2;58.2
61880;BME280;47817;52.798;27.544;2023-02-19T14:07:33;1010.2;;;6;57
61880;BME280;47817;52.798;27.544;2023-02-19T14:12:30;1010.2;;;5.3;55.7
61880;BME280;47817;52.798;27.544;2023-02-19T14:17:00;1010.1;;;4.9;56.3
61880;BME280;47817;52.798;27.544;2023-02-19T14:21:13;1010.2;;;4.6;58.4
61880;BME280;47817;52.798;27.544;2023-02-19T14:26:32;1010.4;;;4.5;58.7
61880;BME280;47817;52.798;27.544;2023-02-19T14:32:00;1010.5;;;4.3;61
61880;BME280;47817;52.798;27.544;2023-02-19T14:36:51;1010.4;;;4.1;63.6
61880;BME280;47817;52.798;27.544;2023-02-19T14:42:00;1010.3;;;4.3;62.2
61880;BME280;47817;52.798;27.544;2023-02-19T14:46:13;1010.2;;;6;57.4
61880;BME280;47817;52.798;27.544;2023-02-19T14:51:44;1010.2;;;7.8;51.7
61880;BME280;47817;52.798;27.544;2023-02-19T14:57:00;1010.3;;;8.5;49.1
61880;BME280;47817;52.798;27.544;2023-02-19T15:01:24;1010.3;;;8;47.3
61880;BME280;47817;52.798;27.544;2023-02-19T15:07:01;1010.4;;;6.1;48.2
61880;BME280;47817;52.798;27.544;2023-02-19T15:11:10;1010.5;;;5.4;48.7
61880;BME280;47817;52.798;27.544;2023-02-19T15:16:33;1010.5;;;4.6;49.6
61880;BME280;47817;52.798;27.544;2023-02-19T15:22:00;1010.6;;;4.1;50.4
61880;BME280;47817;52.798;27.544;2023-02-19T15:26:50;1010.6;;;3.7;50.8
61880;BME280;47817;52.798;27.544;2023-02-19T15:31:59;1010.7;;;3.5;52
61880;BME280;47817;52.798;27.544;2023-02-19T15:36:10;1010.9;;;3.3;53.4
61880;BME280;47817;52.798;27.544;2023-02-19T15:42:00;1011.1;;;3.2;55
61880;BME280;47817;52.798;27.544;2023-02-19T15:46:36;1011.1;;;3.2;57
61880;BME280;47817;52.798;27.544;2023-02-19T15:51:11;1011.1;;;3.1;58.6
61880;BME280;47817;52.798;27.544;2023-02-19T15:56:45;1011.1;;;2.9;59.3
61880;BME280;47817;52.798;27.544;2023-02-19T16:01:23;1011.2;;;2.8;60
61880;BME280;47817;52.798;27.544;2023-02-19T16:06:48;1011.3;;;2.7;60.4
61880;BME280;47817;52.798;27.544;2023-02-19T16:11:26;1011.4;;;2.7;60.6
61880;BME280;47817;52.798;27.544;2023-02-19T16:16:44;1011.4;;;2.6;61.2
61880;BME280;47817;52.798;27.544;2023-02-19T16:21:32;1011.4;;;2.5;62.1
61880;BME280;47817;52.798;27.544;2023-02-19T16:26:24;1011.5;;;2.4;63.1
61880;BME280;47817;52.798;27.544;2023-02-19T16:31:59;1011.6;;;2.3;63.6
61880;BME280;47817;52.798;27.544;2023-02-19T16:36:18;1011.6;;;2.2;63.8
61880;BME280;47817;52.798;27.544;2023-02-19T16:41:10;1011.6;;;2.2;63.5
61880;BME280;47817;52.798;27.544;2023-02-19T16:46:45;1011.6;;;2.2;63.1
61880;BME280;47817;52.798;27.544;2023-02-19T16:51:24;1011.7;;;2.1;62.6
61880;BME280;47817;52.798;27.544;2023-02-19T16:56:58;1011.7;;;2.1;62.2
61880;BME280;47817;52.798;27.544;2023-02-19T17:01:22;1011.7;;;2;61.6
61880;BME280;47817;52.798;27.544;2023-02-19T17:06:20;1011.7;;;2;61.2
61880;BME280;47817;52.798;27.544;2023-02-19T17:11:44;1011.8;;;2;60.7
61880;BME280;47817;52.798;27.544;2023-02-19T17:16:10;1011.8;;;1.9;60
61880;BME280;47817;52.798;27.544;2023-02-19T17:21:58;1011.8;;;2;59.6
61880;BME280;47817;52.798;27.544;2023-02-19T17:26:48;1011.9;;;2;58.6
61880;BME280;47817;52.798;27.544;2023-02-19T17:31:10;1012;;;2;57.8
61880;BME280;47817;52.798;27.544;2023-02-19T17:36:36;1012;;;2;56.8
61880;BME280;47817;52.798;27.544;2023-02-19T17:41:34;1012;;;2;56.3
61880;BME280;47817;52.798;27.544;2023-02-19T17:46:58;1012.1;;;2;56.2
61880;BME280;47817;52.798;27.544;2023-02-19T17:51:10;1012.1;;;2;55.8
61880;BME280;47817;52.798;27.544;2023-02-19T17:56:38;1012.2;;;2.1;55.2
61880;BME280;47817;52.798;27.544;2023-02-19T18:01:42;1012.2;;;2.1;54.9
61880;BME280;47817;52.798;27.544;2023-02-19T18:06:10;1012.2;;;2.1;54.8
61880;BME280;47817;52.798;27.544;2023-02-19T18:11:58;1012.3;;;2.1;54.6
61880;BME280;47817;52.798;27.544;2023-02-19T18:16:10;1012.2;;;2.1;54.5
61880;BME280;47817;52.798;27.544;2023-02-19T18:21:36;1012.2;;;2.1;54.5
61880;BME280;47817;52.798;27.544;2023-02-19T18:26:44;1012.3;;;2;54.6
61880;BME280;47817;52.798;27.544;2023-02-19T18:31:22;1012.3;;;1.9;54.7
61880;BME280;47817;52.798;27.544;2023-02-19T18:37:00;1012.4;;;1.9;54.3
61880;BME280;47817;52.798;27.544;2023-02-19T18:41:10;1012.4;;;2;54.1
61880;BME280;47817;52.798;27.544;2023-02-19T18:46:38;1012.4;;;2;53.9
61880;BME280;47817;52.798;27.544;2023-02-19T18:51:44;1012.5;;;2;53.9
61880;BME280;47817;52.798;27.544;2023-02-19T18:56:40;1012.6;;;2;53.9
61880;BME280;47817;52.798;27.544;2023-02-19T19:01:56;1012.6;;;1.9;54.1
61880;BME280;47817;52.798;27.544;2023-02-19T19:06:22;1012.6;;;1.9;54.3
61880;BME280;47817;52.798;27.544;2023-02-19T19:11:10;1012.6;;;1.9;54.2
61880;BME280;47817;52.798;27.544;2023-02-19T19:16:42;1012.8;;;1.9;54.2
61880;BME280;47817;52.798;27.544;2023-02-19T19:21:12;1012.7;;;1.8;54.3
61880;BME280;47817;52.798;27.544;2023-02-19T19:27:00;1012.8;;;1.9;54.2
61880;BME280;47817;52.798;27.544;2023-02-19T19:31:36;1012.8;;;1.8;54.5
61880;BME280;47817;52.798;27.544;2023-02-19T19:36:10;1012.8;;;1.7;54.8
61880;BME280;47817;52.798;27.544;2023-02-19T19:41:44;1012.8;;;1.7;55
61880;BME280;47817;52.798;27.544;2023-02-19T19:46:24;1012.9;;;1.6;55
61880;BME280;47817;52.798;27.544;2023-02-19T19:51:48;1012.9;;;1.6;54.5
61880;BME280;47817;52.798;27.544;2023-02-19T19:56:38;1012.9;;;1.5;53.9
61880;BME280;47817;52.798;27.544;2023-02-19T20:01:38;1013;;;1.5;53.9
61880;BME280;47817;52.798;27.544;2023-02-19T20:06:58;1013;;;1.4;54
61880;BME280;47817;52.798;27.544;2023-02-19T20:11:24;1013;;;1.4;54.1
61880;BME280;47817;52.798;27.544;2023-02-19T20:16:46;1013;;;1.4;54
61880;BME280;47817;52.798;27.544;2023-02-19T20:21:10;1013.1;;;1.5;54.2
61880;BME280;47817;52.798;27.544;2023-02-19T20:26:38;1013.1;;;1.5;54.4
61880;BME280;47817;52.798;27.544;2023-02-19T20:31:56;1013.2;;;1.4;54.6
61880;BME280;47817;52.798;27.544;2023-02-19T20:36:40;1013.3;;;1.4;54.9
61880;BME280;47817;52.798;27.544;2023-02-19T20:41:44;1013.3;;;1.3;54.5
61880;BME280;47817;52.798;27.544;2023-02-19T20:46:39;1013.3;;;1.2;54.2
61880;BME280;47817;52.798;27.544;2023-02-19T20:51:44;1013.4;;;1.2;54.2
61880;BME280;47817;52.798;27.544;2023-02-19T20:56:59;1013.4;;;1.2;54.3
61880;BME280;47817;52.798;27.544;2023-02-19T21:01:24;1013.4;;;1.2;54.5
61880;BME280;47817;52.798;27.544;2023-02-19T21:06:44;1013.5;;;1.2;55.2
61880;BME280;47817;52.798;27.544;2023-02-19T21:11:22;1013.5;;;1.2;56.4
61880;BME280;47817;52.798;27.544;2023-02-19T21:16:38;1013.6;;;1.2;57.1
61880;BME280;47817;52.798;27.544;2023-02-19T21:21:56;1013.6;;;1.2;57.3
61880;BME280;47817;52.798;27.544;2023-02-19T21:26:10;1013.6;;;1.1;57.2
61880;BME280;47817;52.798;27.544;2023-02-19T21:31:44;1013.7;;;1.1;57
61880;BME280;47817;52.798;27.544;2023-02-19T21:36:34;1013.8;;;1;57.2
61880;BME280;47817;52.798;27.544;2023-02-19T21:41:38;1013.9;;;1;57.8
61880;BME280;47817;52.798;27.544;2023-02-19T21:46:56;1013.9;;;1;58.6
61880;BME280;47817;52.798;27.544;2023-02-19T21:51:10;1014;;;1;59
61880;BME280;47817;52.798;27.544;2023-02-19T21:56:46;1014;;;1.1;59.4
61880;BME280;47817;52.798;27.544;2023-02-19T22:01:22;1014;;;1.2;59.6
61880;BME280;47817;52.798;27.544;2023-02-19T22:06:36;1014.2;;;1.3;59.8
61880;BME280;47817;52.798;27.544;2023-02-19T22:11:56;1014.2;;;1.3;59.6
61880;BME280;47817;52.798;27.544;2023-02-19T22:16:38;1014.2;;;1.3;59.1
61880;BME280;47817;52.798;27.544;2023-02-19T22:21:46;1014.2;;;1.3;58.8
61880;BME280;47817;52.798;27.544;2023-02-19T22:26:20;1014.2;;;1.4;58.7
61880;BME280;47817;52.798;27.544;2023-02-19T22:31:36;1014.3;;;1.5;58.9
61880;BME280;47817;52.798;27.544;2023-02-19T22:36:58;1014.3;;;1.5;59
61880;BME280;47817;52.798;27.544;2023-02-19T22:41:10;1014.3;;;1.5;59.6
61880;BME280;47817;52.798;27.544;2023-02-19T22:46:47;1014.3;;;1.5;59.9
61880;BME280;47817;52.798;27.544;2023-02-19T22:51:21;1014.2;;;1.6;59.9
61880;BME280;47817;52.798;27.544;2023-02-19T22:56:38;1014.3;;;1.6;59.8
61880;BME280;47817;52.798;27.544;2023-02-19T23:01:54;1014.2;;;1.6;59.6
61880;BME280;47817;52.798;27.544;2023-02-19T23:06:39;1014.2;;;1.6;59.7
61880;BME280;47817;52.798;27.544;2023-02-19T23:11:31;1014.4;;;1.6;60.1
61880;BME280;47817;52.798;27.544;2023-02-19T23:16:10;1014.4;;;1.6;60.2
61880;BME280;47817;52.798;27.544;2023-02-19T23:21:38;1014.5;;;1.6;60.5
61880;BME280;47817;52.798;27.544;2023-02-19T23:26:56;1014.4;;;1.6;60.7
61880;BME280;47817;52.798;27.544;2023-02-19T23:31:24;1014.4;;;1.6;60.7
61880;BME280;47817;52.798;27.544;2023-02-19T23:36:44;1014.4;;;1.6;60.6
61880;BME280;47817;52.798;27.544;2023-02-19T23:41:24;1014.4;;;1.6;60.7
61880;BME280;47817;52.798;27.544;2023-02-19T23:46:38;1014.5;;;1.6;60.9
61880;BME280;47817;52.798;27.544;2023-02-19T23:51:56;1014.5;;;1.5;60.9
61880;BME280;47817;52.798;27.544;2023-02-19T23:56:22;1014.4;;;1.6;61
